Terminal Aerodrome Forecast
Issued by NWS Wakefield, VA

Home | Current Version | Previous Version | Text Only | Print | Product List | Glossary On
Versions: 1 2 3 4 5 6 7 8 9 10 11 12 13 14 15 16 17 18 19 20 21 22 23 24 25 26 27
890
FTUS41 KAKQ 300925 AAA
TAFECG
TAF AMD
KECG 300925Z 3009/0106 02009KT P6SM OVC008
     FM301500 05009KT P6SM OVC008
     FM301800 06009KT P6SM OVC015=

USA.gov is the U.S. government's official web portal to all federal, state and local government web resources and services.